PILOTS ONLINE: 497    ATC ONLINE: 79

FGSL - Malabo Airport

Location

IATA SSG
City Malabo
Country  Equatorial Guinea
Latitude 3° 45' 18" N
Longitude 8° 42' 31" E
Elevation 76 ft
Type Medium Airport

Runways

05/23 9647 ft / 151 ft

Weather

METAR
2014/07/22 21:00
FGSL 222100Z 22010KT 8000 BKN008 OVC060 24/22 Q1016 NOSIG
TAF
2014/07/22 18:09
TAF FGSL 221700Z 2218/2324 24008KT 9999 SCT010 FEW018CB 
      BECMG 2304/2306 BKN008 
      TEMPO 2308/2316 4000 RADZ BKN007 FEW018CB

Outbound flights

Inbound flights